EmailTwitter


Surface observations / France / LFPO (07149)

Regions: Quebec | Canada | USA | Europe | France | UK | Elsewhere
Station
Display
Info & Location for LFPO (07149) | Help decoding METAR

Weather Conditions observed on 2018/05/26 at 08:00 UTC at PARIS/ORLY, FR (LFPO)

Temperature: 21.0 Celsius.

Dewpoint: 16.0 Celsius.

Relative Humidity: 73%

Humidex: 26.

Winds: East at 17 km/h or 9 knots.

Mean Sea level Pressure: 101.50 kilopascals.

Coded METAR:

LFPO 260800Z 09009KT CAVOK 21/16 Q1015 NOSIG=